Time;durP1;ratioP1;P1;durP2;ratioP2;P2;SDS_P1;SDS_P2;PMS_P1;PMS_P2;Temp;Humidity;BMP_temperature;BMP_pressure;BME280_temperature;BME280_humidity;BME280_pressure;Samples;Min_cycle;Max_cycle;Signal;HPM_P1;HPM_P2
2022/07/08 00:00:36;;;;;;;12.83;11.60;;;18.50;99.90;;;;;;4934317;29;20489;-72
2022/07/08 00:03:03;;;;;;;11.10;10.50;;;18.40;99.90;;;;;;4934288;29;20454;-72
2022/07/08 00:05:30;;;;;;;11.97;11.17;;;18.40;99.90;;;;;;4934186;29;20454;-72
2022/07/08 00:07:58;;;;;;;11.60;11.10;;;18.40;99.90;;;;;;4934050;29;20461;-72
2022/07/08 00:10:25;;;;;;;11.80;11.10;;;18.50;99.90;;;;;;4933508;29;20493;-73
2022/07/08 00:12:51;;;;;;;12.13;11.33;;;18.40;99.90;;;;;;4933749;29;20461;-72
2022/07/08 00:15:20;;;;;;;11.53;11.03;;;18.50;99.90;;;;;;4933390;29;20457;-72
2022/07/08 00:17:47;;;;;;;11.67;11.07;;;18.50;99.90;;;;;;4933459;29;20453;-72
2022/07/08 00:20:15;;;;;;;12.00;11.40;;;18.40;99.90;;;;;;4933767;29;20936;-73
2022/07/08 00:22:42;;;;;;;12.17;11.20;;;18.40;99.90;;;;;;4933410;29;20550;-73
2022/07/08 00:25:10;;;;;;;11.93;11.00;;;18.40;99.90;;;;;;4933510;29;20477;-72
2022/07/08 00:27:37;;;;;;;12.07;11.23;;;18.20;99.90;;;;;;4933120;29;20489;-72
2022/07/08 00:30:04;;;;;;;12.00;11.37;;;18.20;99.90;;;;;;4933698;29;20939;-72
2022/07/08 00:32:31;;;;;;;12.10;11.03;;;18.00;99.90;;;;;;4933610;29;20453;-73
2022/07/08 00:34:58;;;;;;;12.50;11.70;;;18.00;99.90;;;;;;4933245;29;20473;-72
2022/07/08 00:37:24;;;;;;;12.20;11.10;;;17.90;99.90;;;;;;4933277;29;20457;-72
2022/07/08 00:39:51;;;;;;;11.70;11.10;;;18.10;99.90;;;;;;4933448;29;20800;-72
2022/07/08 00:42:19;;;;;;;12.57;11.83;;;18.00;99.90;;;;;;4933629;29;20462;-72
2022/07/08 00:44:46;;;;;;;13.57;12.77;;;18.00;99.90;;;;;;4933385;29;20986;-72
2022/07/08 00:47:13;;;;;;;12.90;11.90;;;18.00;99.90;;;;;;4933345;29;20484;-72
2022/07/08 00:49:40;;;;;;;13.30;12.40;;;18.00;99.90;;;;;;4933241;29;20489;-73
2022/07/08 00:52:08;;;;;;;13.83;12.67;;;17.90;99.90;;;;;;4933190;29;20461;-71
2022/07/08 00:54:35;;;;;;;13.73;12.60;;;17.90;99.90;;;;;;4933318;29;20454;-72
2022/07/08 00:57:02;;;;;;;13.40;12.30;;;17.80;99.90;;;;;;4933234;29;20560;-72
2022/07/08 00:59:30;;;;;;;13.53;12.67;;;17.70;99.90;;;;;;4933354;29;20797;-73
2022/07/08 01:01:57;;;;;;;41.97;15.00;;;17.80;99.90;;;;;;4933123;29;20473;-72
2022/07/08 01:04:24;;;;;;;15.17;13.87;;;17.60;99.90;;;;;;4932892;29;20488;-72
2022/07/08 01:06:51;;;;;;;15.70;14.30;;;17.60;99.90;;;;;;4932899;29;20460;-73
2022/07/08 01:09:17;;;;;;;13.93;12.90;;;17.50;99.90;;;;;;4933180;29;20489;-71
2022/07/08 01:11:46;;;;;;;13.27;12.27;;;17.50;99.90;;;;;;4933101;29;20517;-72
2022/07/08 01:14:14;;;;;;;14.27;13.27;;;17.40;99.90;;;;;;4937159;29;20468;-72
2022/07/08 01:16:42;;;;;;;15.27;14.17;;;17.30;99.90;;;;;;4941938;29;20464;-72
2022/07/08 01:19:08;;;;;;;15.37;14.07;;;17.20;99.90;;;;;;4941295;29;20868;-72
2022/07/08 01:21:36;;;;;;;14.70;13.43;;;17.10;99.90;;;;;;4939865;28;20924;-72
2022/07/08 01:24:04;;;;;;;14.93;13.70;;;17.00;99.90;;;;;;4941376;28;20453;-72
2022/07/08 01:26:31;;;;;;;14.83;13.77;;;16.90;99.90;;;;;;4941374;28;20499;-72
2022/07/08 01:28:58;;;;;;;14.17;12.87;;;16.80;99.90;;;;;;4943650;28;20445;-72
2022/07/08 01:31:25;;;;;;;14.30;13.20;;;16.70;99.90;;;;;;4945037;28;20483;-72
2022/07/08 01:33:51;;;;;;;14.37;13.27;;;16.60;99.90;;;;;;4945263;29;20462;-72
2022/07/08 01:36:18;;;;;;;14.60;13.47;;;16.60;99.90;;;;;;4943728;28;20446;-72
2022/07/08 01:38:46;;;;;;;14.83;13.40;;;16.60;99.90;;;;;;4945003;28;20444;-71
2022/07/08 01:41:13;;;;;;;14.90;13.53;;;16.60;99.90;;;;;;4945589;29;20525;-71
2022/07/08 01:43:40;;;;;;;14.33;13.13;;;16.60;99.90;;;;;;4945492;29;20744;-71
2022/07/08 01:46:06;;;;;;;14.80;13.53;;;16.50;99.90;;;;;;4944429;29;20941;-71
2022/07/08 01:48:33;;;;;;;16.27;14.63;;;16.50;99.90;;;;;;4943456;28;20455;-71
2022/07/08 01:51:00;;;;;;;14.90;13.47;;;16.50;99.90;;;;;;4945515;29;20480;-72
2022/07/08 01:53:27;;;;;;;13.87;12.93;;;16.40;99.90;;;;;;4944387;29;20449;-71
2022/07/08 01:55:55;;;;;;;14.53;13.10;;;16.40;99.90;;;;;;4943398;28;20571;-71
2022/07/08 01:58:22;;;;;;;14.57;13.23;;;16.40;99.90;;;;;;4949164;29;20795;-71
2022/07/08 02:00:48;;;;;;;14.07;13.10;;;16.30;99.90;;;;;;4954425;28;20543;-72
2022/07/08 02:03:15;;;;;;;13.30;12.40;;;16.20;99.90;;;;;;4954165;28;20456;-71
2022/07/08 02:05:42;;;;;;;13.53;12.60;;;16.10;99.90;;;;;;4954222;28;20570;-71
2022/07/08 02:08:09;;;;;;;12.80;12.10;;;16.00;99.90;;;;;;4954282;28;20519;-71
2022/07/08 02:13:18;;;;;;;14.60;13.80;;;15.80;99.90;;;;;;4954081;29;20436;-71
2022/07/08 02:15:45;;;;;;;13.97;12.93;;;15.70;99.90;;;;;;4953113;28;20799;-71
2022/07/08 02:18:12;;;;;;;14.53;13.30;;;15.70;99.90;;;;;;4944286;29;20940;-72
2022/07/08 02:20:38;;;;;;;14.33;13.13;;;15.60;99.90;;;;;;4942511;28;20441;-71
2022/07/08 02:23:05;;;;;;;14.13;12.90;;;15.60;99.90;;;;;;4944134;28;20811;-71
2022/07/08 02:25:32;;;;;;;14.63;13.10;;;15.60;99.90;;;;;;4947120;29;20534;-71
2022/07/08 02:27:59;;;;;;;14.40;12.97;;;15.60;99.90;;;;;;4953798;28;20483;-71
2022/07/08 02:30:27;;;;;;;15.07;13.00;;;15.50;99.90;;;;;;4953398;28;20493;-72
2022/07/08 02:32:53;;;;;;;12.77;12.00;;;15.50;99.90;;;;;;4953682;28;20468;-72
2022/07/08 02:35:20;;;;;;;13.10;12.40;;;15.40;99.90;;;;;;4953649;28;20461;-71
2022/07/08 02:37:47;;;;;;;13.70;12.90;;;15.30;99.90;;;;;;4954000;28;21076;-72
2022/07/08 02:40:13;;;;;;;13.50;12.30;;;15.20;99.90;;;;;;4952824;28;20810;-71
2022/07/08 02:42:40;;;;;;;13.43;12.53;;;15.20;99.90;;;;;;4953439;28;20453;-71
2022/07/08 02:45:08;;;;;;;13.47;12.47;;;15.10;99.90;;;;;;4953615;28;20453;-72
2022/07/08 02:47:36;;;;;;;13.50;12.60;;;15.00;99.90;;;;;;4953425;28;20476;-71
2022/07/08 02:50:02;;;;;;;14.57;13.27;;;15.00;99.90;;;;;;4953485;28;20492;-71
2022/07/08 02:52:29;;;;;;;13.97;12.83;;;15.00;99.90;;;;;;4953235;28;20453;-71
2022/07/08 02:54:56;;;;;;;13.10;12.30;;;15.00;99.90;;;;;;4953250;28;20965;-72
2022/07/08 02:57:22;;;;;;;14.00;12.80;;;14.90;99.90;;;;;;4953488;28;20452;-71
2022/07/08 02:59:49;;;;;;;13.40;12.43;;;14.90;99.90;;;;;;4953304;28;20463;-71
2022/07/08 03:02:16;;;;;;;13.67;12.73;;;15.00;99.90;;;;;;4953264;28;20457;-71
2022/07/08 03:04:44;;;;;;;13.10;12.17;;;15.00;99.90;;;;;;4953278;28;20456;-70
2022/07/08 03:07:11;;;;;;;13.50;12.70;;;15.00;99.90;;;;;;4953018;28;20830;-70
2022/07/08 03:09:37;;;;;;;14.30;13.10;;;15.10;99.90;;;;;;4953154;28;20444;-70
2022/07/08 03:12:05;;;;;;;13.03;12.33;;;15.10;99.90;;;;;;4953255;28;20453;-70
2022/07/08 03:14:31;;;;;;;12.90;12.00;;;15.10;99.90;;;;;;4953276;28;20460;-71
2022/07/08 03:16:58;;;;;;;13.63;12.40;;;15.20;99.90;;;;;;4953092;28;20464;-71
2022/07/08 03:19:25;;;;;;;13.47;12.10;;;15.10;99.90;;;;;;4952861;28;20590;-71
2022/07/08 03:21:53;;;;;;;12.90;11.80;;;15.10;99.90;;;;;;4952861;28;20467;-70
2022/07/08 03:24:19;;;;;;;12.77;12.07;;;15.10;99.90;;;;;;4953089;28;20803;-71
2022/07/08 03:26:46;;;;;;;13.53;12.70;;;15.00;99.90;;;;;;4952959;28;20495;-70
2022/07/08 03:29:13;;;;;;;13.97;13.03;;;15.00;99.90;;;;;;4952964;28;20494;-70
2022/07/08 03:31:40;;;;;;;14.77;13.53;;;14.90;99.90;;;;;;4952821;28;20499;-70
2022/07/08 03:34:07;;;;;;;13.70;12.60;;;14.90;99.90;;;;;;4952662;28;20919;-70
2022/07/08 03:36:33;;;;;;;13.57;12.50;;;14.80;99.90;;;;;;4952788;28;20680;-70
2022/07/08 03:39:01;;;;;;;14.10;13.13;;;14.70;99.90;;;;;;4953062;28;20867;-70
2022/07/08 03:41:28;;;;;;;13.77;12.77;;;14.70;99.90;;;;;;4952975;29;20955;-70
2022/07/08 03:43:55;;;;;;;14.60;13.27;;;14.70;99.90;;;;;;4953016;28;20453;-72
2022/07/08 03:46:22;;;;;;;14.50;13.37;;;14.80;99.90;;;;;;4952820;28;20852;-71
2022/07/08 03:48:49;;;;;;;13.13;12.43;;;14.70;99.90;;;;;;4952280;28;20467;-71
2022/07/08 03:51:16;;;;;;;12.60;11.70;;;14.80;99.90;;;;;;4952456;28;20484;-72
2022/07/08 03:53:43;;;;;;;13.20;12.10;;;14.70;99.90;;;;;;4952434;28;20463;-73
2022/07/08 03:56:11;;;;;;;12.80;12.03;;;14.70;99.90;;;;;;4952186;28;20455;-72
2022/07/08 03:58:38;;;;;;;14.00;13.20;;;14.70;99.90;;;;;;4952006;28;20947;-72
2022/07/08 04:01:06;;;;;;;13.03;12.23;;;14.80;99.90;;;;;;4951836;28;20457;-72
2022/07/08 04:03:33;;;;;;;14.43;13.47;;;14.80;99.90;;;;;;4952178;28;20531;-72
2022/07/08 04:06:00;;;;;;;14.07;12.67;;;15.00;99.90;;;;;;4952103;28;20457;-72
2022/07/08 04:08:26;;;;;;;12.93;12.23;;;15.00;99.90;;;;;;4951923;28;20923;-72
2022/07/08 04:10:54;;;;;;;13.87;13.17;;;15.10;99.90;;;;;;4951643;28;20515;-71
2022/07/08 04:13:23;;;;;;;14.10;13.20;;;15.30;99.90;;;;;;4952249;28;20876;-72
2022/07/08 04:15:50;;;;;;;13.33;12.43;;;15.40;99.90;;;;;;4951944;28;20492;-71
2022/07/08 04:18:17;;;;;;;12.47;11.97;;;15.50;99.90;;;;;;4952130;28;20453;-70
2022/07/08 04:20:43;;;;;;;13.53;12.30;;;15.60;99.90;;;;;;4952219;28;20448;-70
2022/07/08 04:23:10;;;;;;;13.70;12.67;;;15.60;99.90;;;;;;4952315;28;20457;-71
2022/07/08 04:25:37;;;;;;;12.73;11.93;;;15.70;99.90;;;;;;4952411;28;20532;-72
2022/07/08 04:28:04;;;;;;;13.17;12.17;;;15.70;99.90;;;;;;4952052;28;20488;-71
2022/07/08 04:30:32;;;;;;;15.03;13.60;;;15.70;99.90;;;;;;4952404;28;20571;-71
2022/07/08 04:32:59;;;;;;;13.87;13.07;;;15.70;99.90;;;;;;4952418;28;20467;-72
2022/07/08 04:35:26;;;;;;;13.90;12.70;;;15.80;99.90;;;;;;4952180;28;20474;-73
2022/07/08 04:37:52;;;;;;;13.57;12.60;;;15.80;99.90;;;;;;4951922;28;20479;-73
2022/07/08 04:40:20;;;;;;;13.27;12.33;;;15.90;99.90;;;;;;4946659;28;20453;-72
2022/07/08 04:42:46;;;;;;;13.30;12.30;;;15.90;99.90;;;;;;4943139;29;20809;-72
2022/07/08 04:45:13;;;;;;;12.80;12.00;;;15.90;99.90;;;;;;4944718;29;20449;-72
2022/07/08 04:47:41;;;;;;;13.50;12.70;;;16.00;99.90;;;;;;4951671;28;20535;-72
2022/07/08 04:50:08;;;;;;;13.27;12.47;;;16.00;99.90;;;;;;4951552;28;20503;-72
2022/07/08 04:52:35;;;;;;;12.80;11.97;;;15.90;99.90;;;;;;4951831;28;20464;-74
2022/07/08 04:55:02;;;;;;;13.27;12.13;;;15.80;99.90;;;;;;4952018;28;20452;-73
2022/07/08 04:57:32;;;;;;;12.33;11.40;;;15.80;99.90;;;;;;4951756;28;20455;-71
2022/07/08 04:59:59;;;;;;;12.50;11.80;;;15.80;99.90;;;;;;4951720;28;20592;-71
2022/07/08 05:02:26;;;;;;;12.70;11.80;;;15.70;99.90;;;;;;4951284;28;20453;-73
2022/07/08 05:04:54;;;;;;;11.73;10.93;;;16.00;99.90;;;;;;4951583;28;20468;-72
2022/07/08 05:07:20;;;;;;;12.30;11.33;;;16.70;99.90;;;;;;4951603;28;20467;-73
2022/07/08 05:09:47;;;;;;;13.43;12.40;;;17.40;99.90;;;;;;4951800;28;20457;-72
2022/07/08 05:12:14;;;;;;;12.83;11.97;;;18.20;99.90;;;;;;4951333;28;20496;-73
2022/07/08 05:14:40;;;;;;;13.80;13.00;;;18.60;99.90;;;;;;4951677;28;20799;-72
2022/07/08 05:17:07;;;;;;;12.93;11.97;;;19.10;99.90;;;;;;4951479;28;20460;-73
2022/07/08 05:19:34;;;;;;;13.10;12.23;;;19.50;99.80;;;;;;4951900;28;20464;-71
2022/07/08 05:22:02;;;;;;;13.00;12.10;;;20.00;98.20;;;;;;4951639;28;20504;-72
2022/07/08 05:24:28;;;;;;;12.17;11.50;;;20.40;96.80;;;;;;4951225;28;20453;-72
2022/07/08 05:26:55;;;;;;;12.43;11.50;;;20.60;95.50;;;;;;4951194;28;20876;-72
2022/07/08 05:29:22;;;;;;;13.37;12.57;;;20.10;96.00;;;;;;4951475;28;20459;-70
2022/07/08 05:31:53;;;;;;;12.87;12.13;;;20.00;96.70;;;;;;4951361;28;20500;-72
2022/07/08 05:34:20;;;;;;;13.10;11.80;;;20.10;96.80;;;;;;4951607;28;20460;-71
2022/07/08 05:36:47;;;;;;;12.23;11.53;;;20.10;96.20;;;;;;4951328;28;20452;-73
2022/07/08 05:39:15;;;;;;;13.73;12.50;;;19.90;96.10;;;;;;4951470;28;20448;-73
2022/07/08 05:41:42;;;;;;;13.10;12.00;;;19.60;96.50;;;;;;4951712;28;20452;-73
2022/07/08 05:44:09;;;;;;;14.57;13.30;;;19.70;96.90;;;;;;4945675;28;21901;-74
2022/07/08 05:46:35;;;;;;;12.00;11.23;;;19.90;96.00;;;;;;4942101;29;20864;-73
2022/07/08 05:49:02;;;;;;;12.77;11.87;;;20.20;95.70;;;;;;4941809;29;20454;-74
2022/07/08 05:51:29;;;;;;;12.90;12.20;;;20.90;94.40;;;;;;4940167;28;20481;-74
2022/07/08 05:53:55;;;;;;;12.30;11.60;;;20.50;94.00;;;;;;4942884;29;20450;-74
2022/07/08 05:56:24;;;;;;;12.27;11.57;;;20.70;94.30;;;;;;4941402;28;20820;-75
2022/07/08 05:58:50;;;;;;;13.13;12.10;;;21.30;93.30;;;;;;4941909;29;20451;-74
2022/07/08 06:01:17;;;;;;;13.63;12.63;;;21.50;92.30;;;;;;4941124;29;20449;-74
2022/07/08 06:03:44;;;;;;;12.83;12.03;;;21.70;91.20;;;;;;4941214;28;20448;-75
2022/07/08 06:06:11;;;;;;;12.30;11.60;;;21.20;91.80;;;;;;4942456;29;20448;-75
2022/07/08 06:08:38;;;;;;;14.03;12.70;;;20.80;93.30;;;;;;4940856;29;20454;-76
2022/07/08 06:11:05;;;;;;;16.47;12.20;;;20.90;92.70;;;;;;4940647;28;20484;-75
2022/07/08 06:13:33;;;;;;;12.73;11.93;;;20.60;92.90;;;;;;4942232;28;20824;-75
2022/07/08 06:15:59;;;;;;;12.77;11.53;;;20.10;94.20;;;;;;4944367;29;20457;-75
2022/07/08 06:18:26;;;;;;;12.10;11.20;;;20.10;94.90;;;;;;4943915;28;20453;-74
2022/07/08 06:20:53;;;;;;;13.27;12.37;;;20.70;93.90;;;;;;4945389;29;20459;-74
2022/07/08 06:23:20;;;;;;;11.97;11.07;;;20.70;93.40;;;;;;4944074;29;20588;-75
2022/07/08 06:25:47;;;;;;;13.37;12.47;;;20.80;92.90;;;;;;4943454;28;20475;-73
2022/07/08 06:28:14;;;;;;;12.83;12.03;;;21.30;92.80;;;;;;4945103;29;20484;-76
2022/07/08 06:30:43;;;;;;;13.13;12.40;;;21.60;91.40;;;;;;4943875;29;21015;-74
2022/07/08 06:33:10;;;;;;;12.93;12.03;;;20.80;91.40;;;;;;4943059;28;20549;-74
2022/07/08 06:35:37;;;;;;;12.43;11.50;;;20.30;92.40;;;;;;4948591;28;20807;-74
2022/07/08 06:38:04;;;;;;;13.07;12.20;;;20.50;93.40;;;;;;4954387;28;20448;-72
2022/07/08 06:40:30;;;;;;;13.60;12.27;;;21.50;90.90;;;;;;4953632;28;20455;-73
2022/07/08 06:42:57;;;;;;;12.77;12.00;;;23.00;89.10;;;;;;4955149;28;20452;-73
2022/07/08 06:45:24;;;;;;;12.47;11.63;;;23.20;83.80;;;;;;4954972;28;20456;-73
2022/07/08 06:47:52;;;;;;;12.53;11.90;;;22.50;86.50;;;;;;4954980;28;20460;-73
2022/07/08 06:50:19;;;;;;;12.07;11.50;;;22.00;87.20;;;;;;4955083;28;20508;-73
2022/07/08 06:52:45;;;;;;;12.47;11.80;;;21.10;88.50;;;;;;4948804;28;20492;-74
2022/07/08 06:55:12;;;;;;;12.83;12.00;;;20.70;89.90;;;;;;4943503;28;20452;-75
2022/07/08 06:57:39;;;;;;;12.43;11.47;;;21.10;90.40;;;;;;4944746;29;20540;-72
2022/07/08 07:00:07;;;;;;;12.50;11.40;;;21.90;87.40;;;;;;4943326;29;20445;-74
2022/07/08 07:02:33;;;;;;;12.00;11.40;;;22.10;84.00;;;;;;4943190;28;20476;-73
2022/07/08 07:05:01;;;;;;;12.77;11.93;;;22.50;84.60;;;;;;4944873;29;20444;-73
2022/07/08 07:07:29;;;;;;;13.00;12.10;;;23.50;79.00;;;;;;4939966;29;20469;-73
2022/07/08 07:09:56;;;;;;;11.80;11.20;;;23.90;76.50;;;;;;4932369;29;20465;-74
2022/07/08 07:12:23;;;;;;;12.40;11.73;;;23.30;76.90;;;;;;4935162;29;20489;-74
2022/07/08 07:14:50;;;;;;;11.83;11.23;;;22.90;77.80;;;;;;4935228;29;20472;-74
2022/07/08 07:17:18;;;;;;;12.10;11.40;;;22.60;77.90;;;;;;4935211;29;20445;-76
2022/07/08 07:19:45;;;;;;;12.80;11.90;;;22.50;77.60;;;;;;4935209;29;20485;-75
2022/07/08 07:22:14;;;;;;;12.53;11.83;;;22.50;76.70;;;;;;4934967;29;20454;-75
2022/07/08 07:24:40;;;;;;;13.07;11.90;;;22.60;76.80;;;;;;4934400;29;20461;-74
2022/07/08 07:27:07;;;;;;;11.43;10.73;;;22.20;77.70;;;;;;4934725;29;20485;-74
2022/07/08 07:29:34;;;;;;;13.50;12.20;;;22.30;77.70;;;;;;4934894;29;20509;-74
2022/07/08 07:32:01;;;;;;;11.90;11.30;;;22.10;78.50;;;;;;4934907;29;21054;-75
2022/07/08 07:34:28;;;;;;;12.27;11.57;;;22.60;77.00;;;;;;4934661;29;20458;-73
2022/07/08 07:36:55;;;;;;;12.90;12.10;;;23.60;74.80;;;;;;4934259;29;20987;-76
2022/07/08 07:39:23;;;;;;;11.50;10.83;;;23.90;73.20;;;;;;4934677;29;20485;-75
2022/07/08 07:41:50;;;;;;;12.40;11.70;;;23.60;71.70;;;;;;4935195;29;20505;-75
2022/07/08 07:44:16;;;;;;;12.70;11.93;;;24.10;71.20;;;;;;4935556;29;20445;-76
2022/07/08 07:46:43;;;;;;;12.70;12.10;;;24.70;69.30;;;;;;4934741;29;20460;-75
2022/07/08 07:49:10;;;;;;;12.30;11.70;;;25.20;67.70;;;;;;4934474;29;20453;-75
2022/07/08 07:51:37;;;;;;;12.50;11.67;;;25.00;67.70;;;;;;4934344;29;20546;-75
2022/07/08 07:54:04;;;;;;;11.77;11.13;;;24.70;67.10;;;;;;4934559;29;20476;-75
2022/07/08 07:56:32;;;;;;;12.47;11.73;;;23.70;68.60;;;;;;4934647;29;20454;-73
2022/07/08 07:58:59;;;;;;;10.97;10.43;;;22.80;70.70;;;;;;4934374;29;20552;-74
2022/07/08 08:01:26;;;;;;;11.97;11.17;;;22.00;72.60;;;;;;4934223;29;20450;-74
2022/07/08 08:03:52;;;;;;;12.10;11.50;;;21.50;75.30;;;;;;4934163;29;20465;-74
2022/07/08 08:06:19;;;;;;;12.47;11.87;;;22.00;74.90;;;;;;4934128;29;20970;-74
2022/07/08 08:08:46;;;;;;;12.30;11.80;;;23.10;73.70;;;;;;4934414;29;20540;-74
2022/07/08 08:11:13;;;;;;;12.17;11.30;;;24.00;69.40;;;;;;4934101;29;20457;-74
2022/07/08 08:13:42;;;;;;;13.10;12.40;;;24.50;67.60;;;;;;4934013;29;20468;-75
2022/07/08 08:16:08;;;;;;;12.67;11.87;;;24.90;65.90;;;;;;4933966;29;20823;-75
2022/07/08 08:18:35;;;;;;;12.33;11.73;;;24.50;65.90;;;;;;4934008;29;20450;-75
2022/07/08 08:21:02;;;;;;;13.80;12.80;;;23.90;67.40;;;;;;4934134;29;20456;-74
2022/07/08 08:23:28;;;;;;;11.87;11.27;;;23.20;68.80;;;;;;4933924;29;20449;-74
2022/07/08 08:25:56;;;;;;;12.03;11.43;;;22.80;71.40;;;;;;4933799;29;20894;-76
2022/07/08 08:28:24;;;;;;;12.50;11.60;;;23.70;71.10;;;;;;4933498;29;20461;-75
2022/07/08 08:30:52;;;;;;;12.20;11.60;;;25.20;67.10;;;;;;4933686;29;20468;-76
2022/07/08 08:33:19;;;;;;;12.50;12.00;;;26.80;62.70;;;;;;4933775;29;20489;-75
2022/07/08 08:35:45;;;;;;;12.80;11.90;;;26.60;59.80;;;;;;4933803;29;20460;-75
2022/07/08 08:38:12;;;;;;;12.57;11.97;;;25.30;61.70;;;;;;4932971;29;20453;-75
2022/07/08 08:40:42;;;;;;;12.60;12.00;;;25.80;61.90;;;;;;4933444;29;20453;-75
2022/07/08 08:43:09;;;;;;;13.53;12.47;;;26.50;59.70;;;;;;4933496;29;20442;-75
2022/07/08 08:45:35;;;;;;;12.80;12.20;;;26.70;58.70;;;;;;4933603;29;20460;-75
2022/07/08 08:48:07;;;;;;;14.13;13.03;;;25.80;60.30;;;;;;4933790;29;20464;-75
2022/07/08 08:50:54;;;;;;;12.20;11.60;;;25.60;59.70;;;;;;4933694;29;20464;-75
2022/07/08 08:53:26;;;;;;;12.73;12.03;;;25.20;61.30;;;;;;4933442;29;20579;-75
2022/07/08 08:55:54;;;;;;;13.00;12.40;;;25.80;59.90;;;;;;4933483;29;20872;-75
2022/07/08 08:58:22;;;;;;;12.57;11.93;;;26.40;58.40;;;;;;4933224;29;20477;-74
2022/07/08 09:00:49;;;;;;;14.33;12.47;;;26.20;59.00;;;;;;4933592;29;20472;-75
2022/07/08 09:03:17;;;;;;;13.13;12.33;;;25.70;60.00;;;;;;4933405;29;20457;-73
2022/07/08 09:05:44;;;;;;;12.20;11.57;;;26.20;58.60;;;;;;4935409;29;20464;-74
2022/07/08 09:08:10;;;;;;;14.33;13.10;;;25.70;58.50;;;;;;4940324;28;20975;-73
2022/07/08 09:10:37;;;;;;;13.97;13.27;;;24.80;59.90;;;;;;4942030;28;20453;-73
2022/07/08 09:13:07;;;;;;;12.90;12.10;;;23.80;62.10;;;;;;4949025;28;20491;-75
2022/07/08 09:15:36;;;;;;;13.20;12.50;;;23.60;64.20;;;;;;4942450;29;20484;-76
2022/07/08 09:18:04;;;;;;;12.50;12.00;;;24.80;61.60;;;;;;4941299;29;20891;-75
2022/07/08 09:20:46;;;;;;;12.93;12.33;;;25.70;58.20;;;;;;4940795;28;20539;-75
2022/07/08 09:23:15;;;;;;;13.03;12.40;;;26.30;57.30;;;;;;4942859;29;20542;-75
2022/07/08 09:25:42;;;;;;;13.10;12.40;;;27.20;54.50;;;;;;4942176;28;20489;-76
2022/07/08 09:28:09;;;;;;;13.73;13.00;;;27.70;53.70;;;;;;4934579;29;20485;-75
2022/07/08 09:30:36;;;;;;;13.03;12.33;;;28.10;53.00;;;;;;4932138;29;21024;-75
2022/07/08 09:33:04;;;;;;;12.83;12.20;;;28.10;52.70;;;;;;4943215;29;20487;-75
2022/07/08 09:35:37;;;;;;;13.20;12.30;;;27.80;53.40;;;;;;4952292;28;20840;-74
2022/07/08 09:38:07;;;;;;;12.60;12.07;;;27.60;53.70;;;;;;4952227;28;20887;-74
2022/07/08 09:40:35;;;;;;;12.97;12.37;;;27.50;53.80;;;;;;4952384;28;20452;-75
2022/07/08 09:43:03;;;;;;;12.43;11.73;;;27.40;55.00;;;;;;4952408;28;20456;-75
2022/07/08 09:45:34;;;;;;;14.87;13.97;;;27.40;55.50;;;;;;4952337;28;20453;-75
2022/07/08 09:48:05;;;;;;;14.00;13.00;;;27.50;55.20;;;;;;4953097;28;20464;-75
2022/07/08 09:50:36;;;;;;;13.27;12.67;;;27.90;55.50;;;;;;4955821;28;20551;-76
2022/07/08 09:53:15;;;;;;;13.47;12.87;;;28.60;53.60;;;;;;4955822;28;20594;-75
2022/07/08 09:55:43;;;;;;;13.30;12.70;;;28.90;51.90;;;;;;4955882;28;20459;-75
2022/07/08 09:58:13;;;;;;;13.80;13.17;;;28.60;51.80;;;;;;4955751;28;20444;-75
2022/07/08 10:00:41;;;;;;;13.50;12.77;;;28.70;51.60;;;;;;4955570;28;20507;-75
2022/07/08 10:03:08;;;;;;;14.70;13.53;;;29.70;51.30;;;;;;4955584;28;20455;-74
2022/07/08 10:05:35;;;;;;;13.63;12.63;;;30.10;49.60;;;;;;4955391;28;20452;-74
2022/07/08 10:08:02;;;;;;;13.77;13.07;;;28.50;51.50;;;;;;4955423;28;20942;-74
2022/07/08 10:10:32;;;;;;;13.50;12.60;;;26.80;54.10;;;;;;4955348;28;20882;-75
2022/07/08 10:13:00;;;;;;;13.00;12.30;;;26.80;54.50;;;;;;4955314;28;20495;-75
2022/07/08 10:15:27;;;;;;;13.20;12.47;;;27.30;53.30;;;;;;4955376;28;20965;-75
2022/07/08 10:17:58;;;;;;;13.17;12.60;;;27.70;52.80;;;;;;4955068;28;20453;-75
2022/07/08 10:20:27;;;;;;;13.67;12.93;;;28.20;52.60;;;;;;4955366;28;20456;-73
2022/07/08 10:22:58;;;;;;;13.47;12.57;;;28.60;51.80;;;;;;4954921;28;20475;-74
2022/07/08 10:25:26;;;;;;;13.23;12.53;;;27.70;52.90;;;;;;4954950;28;20473;-75
2022/07/08 10:28:04;;;;;;;13.30;12.70;;;26.10;54.50;;;;;;4954886;28;20491;-75
2022/07/08 10:30:46;;;;;;;13.03;12.43;;;26.10;55.70;;;;;;4955608;28;20499;-75
2022/07/08 10:33:18;;;;;;;12.57;12.00;;;26.60;54.60;;;;;;4955057;28;20494;-74
2022/07/08 10:36:02;;;;;;;14.37;13.50;;;26.60;54.80;;;;;;4955256;28;20488;-74
2022/07/08 10:38:30;;;;;;;12.97;12.30;;;27.90;52.50;;;;;;4953326;28;20484;-75
2022/07/08 10:41:01;;;;;;;13.07;12.43;;;28.00;53.40;;;;;;4954865;28;20928;-75
2022/07/08 10:43:30;;;;;;;14.43;13.10;;;28.90;52.30;;;;;;4954873;28;20453;-73
2022/07/08 10:46:16;;;;;;;13.20;12.50;;;29.10;50.80;;;;;;4954766;29;20919;-74
2022/07/08 10:48:54;;;;;;;13.70;13.00;;;29.40;51.00;;;;;;4954758;28;20558;-75
2022/07/08 10:51:43;;;;;;;12.73;12.23;;;28.90;50.30;;;;;;4954696;28;20476;-75
2022/07/08 10:54:24;;;;;;;13.20;12.70;;;29.40;50.70;;;;;;4954831;28;20453;-75
2022/07/08 10:56:53;;;;;;;14.50;13.73;;;29.50;49.90;;;;;;4954692;28;20457;-75
2022/07/08 10:59:22;;;;;;;12.40;11.60;;;30.40;49.30;;;;;;4954000;28;20483;-75
2022/07/08 11:01:51;;;;;;;13.43;12.70;;;30.20;47.60;;;;;;4954506;28;20453;-74
2022/07/08 11:04:25;;;;;;;13.40;12.80;;;28.60;48.50;;;;;;4954681;28;20492;-75
2022/07/08 11:06:52;;;;;;;14.03;13.40;;;27.70;50.10;;;;;;4954586;28;20457;-74
2022/07/08 11:09:19;;;;;;;13.03;12.53;;;27.50;51.00;;;;;;4954517;28;20456;-73
2022/07/08 11:11:47;;;;;;;13.07;12.47;;;27.30;51.10;;;;;;4954561;28;20459;-75
2022/07/08 11:14:14;;;;;;;14.87;13.90;;;27.60;51.20;;;;;;4954404;28;20493;-75
2022/07/08 11:16:42;;;;;;;13.50;12.90;;;28.00;51.10;;;;;;4954402;28;20461;-75
2022/07/08 11:19:09;;;;;;;13.17;12.50;;;27.60;51.30;;;;;;4954277;28;20461;-75
2022/07/08 11:21:35;;;;;;;13.57;12.67;;;27.50;52.20;;;;;;4954392;28;20463;-75
2022/07/08 11:24:02;;;;;;;12.07;11.43;;;28.00;51.20;;;;;;4954300;28;20449;-74
2022/07/08 11:26:30;;;;;;;13.30;12.50;;;28.70;51.50;;;;;;4954030;28;20499;-75
2022/07/08 11:28:56;;;;;;;12.67;12.17;;;28.90;50.40;;;;;;4954148;28;20527;-75
2022/07/08 11:31:27;;;;;;;12.77;12.10;;;28.80;49.30;;;;;;4953961;28;20457;-75
2022/07/08 11:33:55;;;;;;;13.10;12.60;;;28.30;50.60;;;;;;4953901;28;20528;-76
2022/07/08 11:36:22;;;;;;;13.63;12.83;;;27.90;50.50;;;;;;4953958;28;20460;-76
2022/07/08 11:38:50;;;;;;;14.00;13.30;;;27.50;51.40;;;;;;4954188;28;20475;-75
2022/07/08 11:41:20;;;;;;;14.40;13.57;;;27.20;52.50;;;;;;4954037;28;20951;-74
2022/07/08 11:43:48;;;;;;;13.00;12.40;;;28.50;51.00;;;;;;4954039;28;20527;-75
2022/07/08 11:46:19;;;;;;;13.40;12.77;;;29.70;49.50;;;;;;4953754;29;20942;-76
2022/07/08 11:48:46;;;;;;;14.23;13.43;;;29.70;47.70;;;;;;4953795;29;20457;-76
2022/07/08 11:51:15;;;;;;;13.60;12.80;;;29.80;47.50;;;;;;4953525;28;20492;-76
2022/07/08 11:53:42;;;;;;;13.23;12.47;;;29.80;48.40;;;;;;4953350;28;20531;-76
2022/07/08 11:56:09;;;;;;;13.53;12.93;;;30.10;47.70;;;;;;4953487;28;20452;-75
2022/07/08 11:58:36;;;;;;;13.53;12.93;;;31.00;46.90;;;;;;4953491;28;20480;-75
2022/07/08 12:01:04;;;;;;;13.27;12.67;;;31.80;46.10;;;;;;4953527;28;20492;-73
2022/07/08 12:03:33;;;;;;;13.80;13.10;;;32.60;44.50;;;;;;4953459;28;20942;-73
2022/07/08 12:06:00;;;;;;;13.13;12.50;;;32.30;43.70;;;;;;4953100;28;20468;-73
2022/07/08 12:08:28;;;;;;;13.70;13.10;;;31.40;44.80;;;;;;4953195;28;20862;-75
2022/07/08 12:11:16;;;;;;;13.43;12.67;;;30.10;45.70;;;;;;4952667;28;20457;-74
2022/07/08 12:13:44;;;;;;;13.53;12.93;;;29.50;47.30;;;;;;4952759;28;20829;-74
2022/07/08 12:16:11;;;;;;;13.10;12.60;;;28.80;48.00;;;;;;4953050;28;20456;-74
2022/07/08 12:18:44;;;;;;;13.70;13.00;;;28.70;48.10;;;;;;4952836;28;20453;-74
2022/07/08 12:21:18;;;;;;;13.77;13.07;;;28.80;48.00;;;;;;4952762;28;20467;-74
2022/07/08 12:23:55;;;;;;;12.97;12.33;;;29.90;46.70;;;;;;4952840;28;20531;-74
2022/07/08 12:26:22;;;;;;;14.27;13.13;;;30.20;46.40;;;;;;4952438;28;20584;-74
2022/07/08 12:28:48;;;;;;;14.13;13.37;;;30.40;45.90;;;;;;4952756;28;20457;-75
2022/07/08 12:31:38;;;;;;;13.00;12.50;;;30.40;46.00;;;;;;4952752;28;20464;-74
2022/07/08 12:34:05;;;;;;;12.60;11.80;;;31.00;44.90;;;;;;4952272;28;20496;-74